TimePST,TemperatureF,Dew PointF,Humidity,Sea Level PressureIn,VisibilityMPH,Wind Direction,Wind SpeedMPH,Gust SpeedMPH,PrecipitationIn,Events,Conditions,WindDirDegrees,DateUTC
12:23 AM,9.0,7.0,92,30.32,1.2,North,3.5,-,N/A,,Partly Cloudy,350,2013-12-30 08:23:00
12:26 AM,9.0,7.0,92,30.32,4.0,North,3.5,-,N/A,,Partly Cloudy,360,2013-12-30 08:26:00
12:50 AM,8.6,6.8,92,30.32,4.0,Calm,Calm,-,N/A,,Mostly Cloudy,0,2013-12-30 08:50:00
12:53 AM,9.0,7.0,92,30.46,4.0,Calm,Calm,-,N/A,,Mostly Cloudy,0,2013-12-30 08:53:00
1:24 AM,9.0,7.0,92,30.32,2.5,Calm,Calm,-,N/A,,Overcast,0,2013-12-30 09:24:00
1:33 AM,9.0,7.0,92,30.32,8.0,Calm,Calm,-,N/A,,Overcast,0,2013-12-30 09:33:00
1:53 AM,10.0,7.0,87,30.46,9.0,Calm,Calm,-,N/A,,Overcast,0,2013-12-30 09:53:00
2:53 AM,10.9,9.0,92,30.46,4.0,Calm,Calm,-,N/A,,Mostly Cloudy,0,2013-12-30 10:53:00
2:59 AM,10.9,8.1,88,30.32,1.8,NE,3.5,-,N/A,,Overcast,50,2013-12-30 10:59:00
3:08 AM,10.9,9.0,92,30.32,3.0,Calm,Calm,-,N/A,,Overcast,0,2013-12-30 11:08:00
3:24 AM,10.0,8.1,92,30.32,1.5,Calm,Calm,-,N/A,,Overcast,0,2013-12-30 11:24:00
3:33 AM,10.9,9.0,92,30.32,0.5,Calm,Calm,-,N/A,Fog,Light Freezing Fog,0,2013-12-30 11:33:00
3:44 AM,10.9,9.0,92,30.32,2.5,Calm,Calm,-,N/A,,Overcast,0,2013-12-30 11:44:00
3:53 AM,12.0,9.0,88,30.45,1.8,Calm,Calm,-,N/A,,Overcast,0,2013-12-30 11:53:00
3:56 AM,12.0,9.0,88,30.32,3.0,Calm,Calm,-,N/A,,Mostly Cloudy,0,2013-12-30 11:56:00
4:22 AM,14.0,10.0,84,30.32,7.0,WNW,3.5,-,N/A,,Scattered Clouds,290,2013-12-30 12:22:00
4:50 AM,14.0,10.4,86,30.32,7.0,Calm,Calm,-,N/A,,Mostly Cloudy,0,2013-12-30 12:50:00
4:53 AM,14.0,10.0,84,30.45,7.0,Calm,Calm,-,N/A,,Mostly Cloudy,0,2013-12-30 12:53:00
5:43 AM,15.1,10.9,84,30.32,6.0,Calm,Calm,-,N/A,,Scattered Clouds,0,2013-12-30 13:43:00
5:53 AM,15.1,10.9,84,30.47,6.0,NNE,4.6,-,N/A,,Clear,30,2013-12-30 13:53:00
6:53 AM,14.0,10.9,88,30.47,8.0,Calm,Calm,-,N/A,,Clear,0,2013-12-30 14:53:00
7:53 AM,15.1,12.9,91,30.47,6.0,Calm,Calm,-,N/A,,Clear,0,2013-12-30 15:53:00
8:53 AM,17.1,16.0,96,30.48,6.0,Calm,Calm,-,N/A,,Clear,0,2013-12-30 16:53:00
9:53 AM,21.0,19.0,92,30.47,6.0,Calm,Calm,-,N/A,,Partly Cloudy,0,2013-12-30 17:53:00
10:53 AM,23.0,21.0,92,30.44,7.0,Calm,Calm,-,N/A,,Mostly Cloudy,0,2013-12-30 18:53:00
11:53 AM,26.1,21.9,84,30.40,8.0,Calm,Calm,-,N/A,,Scattered Clouds,0,2013-12-30 19:53:00
12:53 PM,30.9,24.1,76,30.37,10.0,NNE,4.6,-,N/A,,Mostly Cloudy,30,2013-12-30 20:53:00
1:53 PM,30.0,25.0,82,30.36,10.0,Calm,Calm,-,N/A,,Overcast,0,2013-12-30 21:53:00
2:53 PM,28.9,23.0,78,30.38,10.0,West,6.9,-,N/A,,Overcast,280,2013-12-30 22:53:00
3:53 PM,28.9,25.0,85,30.39,10.0,South,3.5,-,N/A,,Overcast,180,2013-12-30 23:53:00
4:53 PM,28.0,25.0,88,30.38,6.0,ESE,3.5,-,0.00,Snow,Light Snow,110,2013-12-31 00:53:00
5:53 PM,28.9,26.1,89,30.37,7.0,Calm,Calm,-,0.01,,Overcast,0,2013-12-31 01:53:00
6:53 PM,28.9,27.0,92,30.37,6.0,NE,6.9,-,0.02,,Overcast,40,2013-12-31 02:53:00
7:39 PM,28.9,27.0,92,30.26,10.0,NNE,6.9,-,0.01,,Overcast,30,2013-12-31 03:39:00
7:53 PM,28.9,27.0,92,30.38,10.0,NNE,6.9,-,0.01,,Overcast,20,2013-12-31 03:53:00
8:21 PM,28.9,27.0,92,30.26,10.0,ENE,6.9,-,N/A,,Overcast,60,2013-12-31 04:21:00
8:53 PM,28.0,27.0,96,30.38,8.0,SE,4.6,-,0.00,,Overcast,130,2013-12-31 04:53:00
9:53 PM,27.0,26.1,96,30.38,10.0,NE,3.5,-,0.00,,Overcast,40,2013-12-31 05:53:00
10:23 PM,26.1,25.0,96,30.27,9.0,Calm,Calm,-,N/A,,Overcast,0,2013-12-31 06:23:00
10:27 PM,26.1,25.0,96,30.27,9.0,WNW,3.5,-,N/A,,Overcast,290,2013-12-31 06:27:00
10:53 PM,25.0,25.0,100,30.38,7.0,Calm,Calm,-,N/A,,Overcast,0,2013-12-31 06:53:00
11:06 PM,25.0,24.1,96,30.27,6.0,East,3.5,-,N/A,,Overcast,90,2013-12-31 07:06:00
11:53 PM,25.0,23.0,92,30.36,6.0,SE,3.5,-,N/A,,Overcast,130,2013-12-31 07:53:00